Terminal Aerodrome Forecast
Issued by NWS Pittsburgh, PA

Current Version | Previous Version | Text Only | Print | Product List | Glossary Off
Versions: 1 2 3 4 5 6 7 8 9 10 11 12 13 14 15 16 17 18 19 20 21 22 23 24 25 26 27 28 29 30 31 32 33

000
FTUS41 KPBZ 292300
TAFPIT
TAF
KPIT 292330Z 3000/3106 19010KT P6SM BKN100
     FM300400 22010KT 6SM -RA OVC060
     FM300600 21010KT 5SM -RA OVC025
     FM301200 26011KT P6SM BKN025 OVC035
     FM301500 26012G20KT P6SM BKN035=

USA.gov is the U.S. government's official web portal to all federal, state and local government web resources and services.